Weather observations for the past three days for
Fort Madison Municipal Airport
Imperial (Metric)
Date Time (cdt) Wind (mph) Vis. (mi.) Weather Sky Cond. Temperature (ºF) Relative Humidity Wind Chill (°F) Heat Index (°F) Pressure Precipitation (in)
Air Dwpt 6 hour altimeter (in) sea level (mb) 1 hr 3 hr 6 hr
Max. Min.
03 09:15 S 7 10.00 Fair CLR 84.2 71.6 66% 90 29.94 0.0
03 08:55 S 10 10.00 Fair CLR 82.4 71.6 70% 87 29.94 0.0
03 08:35 S 12 10.00 Fair CLR 82.4 71.6 70% 87 29.95 0.0
03 08:15 S 9 10.00 Fair CLR 80.6 71.6 74% 85 29.95 0.0
03 07:55 S 9 10.00 Fair CLR 78.8 71.6 79% 82 29.94 0.0
03 07:35 S 9 10.00 Fair CLR 78.8 71.6 79% 82 29.94 0.0
03 07:15 S 9 10.00 Fair CLR 78.8 71.6 79% 82 29.94 0.0
03 06:55 S 10 10.00 Fair CLR 78.8 69.8 81 77.9 74% 81 29.93 0.0
03 06:35 S 9 10.00 Fair CLR 78.8 69.8 74% 81 29.93 0.0
03 06:15 S 8 10.00 Fair CLR 78.8 69.8 74% 81 29.92 0.0
03 05:55 S 9 10.00 Fair CLR 78.8 69.8 74% 81 29.92 0.0
03 05:35 S 9 10.00 Fair CLR 78.8 71.6 79% 82 29.92 0.0
03 05:15 S 9 10.00 Fair CLR 78.8 71.6 79% 82 29.92 0.0
03 04:56 S 9 10.00 Fair CLR 78.8 71.6 79% 82 29.92 0.0
03 04:35 S 9 10.00 Fair CLR 78.8 71.6 79% 82 29.92 0.0
03 04:15 S 9 10.00 Fair CLR 78.8 71.6 79% 82 29.92 0.0
03 03:55 S 9 10.00 Fair CLR 80.6 71.6 74% 85 29.91 0.0
03 03:35 S 8 10.00 Fair CLR 80.6 71.6 74% 85 29.91 0.0
03 03:15 S 9 10.00 Fair CLR 80.6 71.6 74% 85 29.92 0.0
03 02:55 S 7 10.00 Fair CLR 80.6 71.6 74% 85 29.91 0.0
03 02:35 S 7 10.00 Fair CLR 80.6 71.6 74% 85 29.92 0.0
03 02:15 S 8 10.00 Fair CLR 80.6 71.6 74% 85 29.92 0.0
03 01:55 S 8 10.00 Fair CLR 80.6 71.6 74% 85 29.92 0.0
03 01:35 S 7 10.00 Fair CLR 80.6 71.6 74% 85 29.92 0.0
03 01:15 S 7 8.00 Fair CLR 78.8 71.6 79% 82 29.93 0.0
03 00:56 S 6 10.00 Fair CLR 78.8 71.6 89.1 79 79% 82 29.93 0.0
03 00:35 S 6 10.00 Fair CLR 78.8 71.6 79% 82 29.92 0.0
03 00:15 S 7 10.00 Fair CLR 78.8 73.4 84% 82 29.93 0.0
02 23:56 S 6 10.00 Fair CLR 78.8 73.4 84% 82 29.93 0.0
02 23:35 S 7 10.00 Fair CLR 80.6 73.4 79% 85 29.92 0.0
02 23:15 S 6 10.00 Fair CLR 80.6 73.4 79% 85 29.92 0.0
02 22:55 S 6 10.00 Fair CLR 80.6 73.4 79% 85 29.93 0.0
02 22:35 SE 7 10.00 Fair CLR 80.6 73.4 79% 85 29.93 0.0
02 22:15 SE 5 10.00 Fair CLR 82.4 73.4 74% 88 29.92 0.0
02 21:55 SE 6 10.00 Fair CLR 80.6 73.4 79% 85 29.92 0.0
02 21:35 SE 7 10.00 Fair CLR 84.2 73.4 70% 91 29.92 0.0
02 21:15 SE 7 10.00 Fair CLR 84.2 73.4 70% 91 29.92 0.0
02 20:55 SE 6 10.00 Fair CLR 84.2 75.2 74% 92 29.91 0.0
02 20:35 SE 6 10.00 Fair CLR 84.2 75.2 74% 92 29.91 0.0
02 20:15 SE 6 10.00 Fair CLR 84.2 75.2 74% 92 29.91 0.0
02 19:55 SE 6 10.00 Fair CLR 84.2 75.2 74% 92 29.91 0.0
02 19:35 SE 5 10.00 Fair CLR 84.2 75.2 74% 92 29.9 0.0
02 19:15 SE 5 10.00 Fair CLR 86 73.4 66% 93 29.91 0.0
02 18:55 SE 3 10.00 Fair CLR 87.8 75.2 95 89.1 66% 98 29.91 0.0
02 18:35 SE 5 10.00 Fair CLR 89.6 75.2 63% 100 29.91 0.0
02 18:15 SE 3 10.00 Fair CLR 91.4 77 63% 105 29.91 0.0
02 17:55 SE 6 10.00 Fair CLR 91.4 77 63% 105 29.91 0.0
02 17:35 SE 3 10.00 Fair CLR 93.2 75.2 56% 105 29.91 0.0
02 17:15 SE 6 10.00 Fair CLR 93.2 75.2 56% 105 29.91 0.0
02 16:55 SE 6 10.00 Fair CLR 93.2 75.2 56% 105 29.92 0.0
02 16:35 S 6 10.00 Fair CLR 95 73.4 50% 105 29.92 0.0
02 16:15 S 7 10.00 Fair CLR 95 75.2 53% 107 29.92 0.0
02 15:55 S 9 10.00 Fair CLR 95 75.2 53% 107 29.93 0.0
02 15:35 S 6 10.00 Fair CLR 95 75.2 53% 107 29.93 0.0
02 15:15 SE 8 10.00 Fair CLR 95 75.2 53% 107 29.93 0.0
02 14:55 S 7 10.00 Fair CLR 93.2 75.2 56% 105 29.94 0.0
02 14:35 S 8 10.00 Fair CLR 95 75.2 53% 107 29.94 0.0
02 14:15 S 8 10.00 Fair CLR 93.2 75.2 56% 105 29.95 0.0
02 13:56 S 8 10.00 Fair CLR 93.2 75.2 56% 105 29.95 0.0
02 13:36 SE 7 10.00 Fair CLR 93.2 75.2 56% 105 29.96 0.0
02 13:15 S 10 10.00 Fair CLR 93.2 73.4 53% 103 29.96 0.0
02 12:55 S 8 10.00 Fair CLR 91.4 75.2 91.2 76.6 59% 103 29.97 0.0
02 12:35 S 8 10.00 A Few Clouds FEW110 91.4 73.4 56% 100 29.98 0.0
02 12:15 S 7 10.00 A Few Clouds FEW110 89.6 75.2 63% 100 29.99 0.0
02 11:55 Vrbl 5 10.00 A Few Clouds FEW120 89.6 75.2 63% 100 29.99 0.0
02 11:35 SW 6 10.00 Fair CLR 87.8 71.6 59% 94 29.99 0.0
02 11:15 Vrbl 3 10.00 Fair CLR 87.8 73.4 62% 96 30 0.0
02 10:55 W 3 10.00 Fair CLR 86 73.4 66% 93 30 0.0
02 10:35 S 7 10.00 Fair CLR 86 73.4 66% 93 29.99 0.0
02 10:15 Vrbl 5 10.00 A Few Clouds FEW095 84.2 71.6 66% 90 29.99 0.0
02 09:55 SW 6 10.00 Fair CLR 84.2 71.6 66% 90 29.98 0.0
02 09:35 SW 7 10.00 Fair CLR 84.2 71.6 66% 90 29.98 0.0
02 09:15 SW 7 10.00 Fair CLR 82.4 71.6 70% 87 29.99 0.0
02 08:55 S 7 10.00 Fair CLR 82.4 71.6 70% 87 29.98 0.0
02 08:35 S 9 10.00 Fair CLR 80.6 69.8 70% 84 29.98 0.0
02 08:15 S 9 10.00 Fair CLR 78.8 69.8 74% 81 29.98 0.0
02 07:55 S 7 10.00 Fair CLR 78.8 69.8 74% 81 29.98 0.0
02 07:35 S 8 10.00 Fair CLR 77 69.8 79% 79 29.97 0.0
02 07:15 S 9 10.00 Fair CLR 77 69.8 79% 79 29.97 0.0
02 06:55 S 9 10.00 Fair CLR 77 69.8 79.3 76.5 79% 79 29.97 0.0
02 06:35 S 8 10.00 Fair CLR 77 69.8 79% 79 29.96 0.0
02 06:15 S 7 10.00 Fair CLR 77 69.8 79% 79 29.96 0.0
02 05:55 S 8 10.00 A Few Clouds FEW100 77 69.8 79% 79 29.96 0.0
02 05:35 S 10 10.00 A Few Clouds FEW100 77 69.8 79% 79 29.96 0.0
02 05:15 S 9 10.00 Fair CLR 77 69.8 79% 79 29.97 0.0
02 04:55 S 9 10.00 Fair CLR 77 69.8 79% 79 29.96 0.0
02 04:35 S 8 10.00 Fair CLR 78.8 69.8 74% 81 29.97 0.0
02 04:15 S 10 10.00 Fair CLR 78.8 69.8 74% 81 29.96 0.0
02 03:55 S 8 10.00 Fair CLR 78.8 69.8 74% 81 29.96 0.0
02 03:35 S 7 10.00 Fair CLR 78.8 69.8 74% 81 29.95 0.0
02 03:15 S 8 10.00 Fair CLR 78.8 68 70% 81 29.95 0.0
02 02:55 S 7 10.00 Fair CLR 78.8 69.8 74% 81 29.95 0.0
02 02:35 S 8 10.00 Fair CLR 78.8 69.8 74% 81 29.94 0.0
02 02:15 S 8 10.00 Fair CLR 78.8 69.8 74% 81 29.95 0.0
02 01:55 S 8 10.00 Fair CLR 78.8 69.8 74% 81 29.95 0.0
02 01:35 S 7 10.00 Fair CLR 78.8 68 70% 81 29.96 0.0
02 01:15 S 8 10.00 Fair CLR 78.8 68 70% 81 29.96 0.0
02 00:55 S 7 10.00 Fair CLR 78.8 68 88.7 77.5 70% 81 29.96 0.0
02 00:35 S 6 10.00 A Few Clouds FEW090 78.8 69.8 74% 81 29.96 0.0
02 00:15 S 7 10.00 Mostly Cloudy BKN090 77 69.8 79% 79 29.97 0.0
01 23:55 S 6 10.00 Mostly Cloudy BKN090 78.8 69.8 74% 81 29.96 0.0
01 23:35 S 7 10.00 A Few Clouds FEW090 78.8 69.8 74% 81 29.96 0.0
01 23:15 S 6 10.00 Partly Cloudy SCT090 78.8 69.8 74% 81 29.96 0.0
01 22:55 S 6 10.00 Mostly Cloudy BKN090 78.8 69.8 74% 81 29.96 0.0
01 22:35 S 6 10.00 A Few Clouds FEW090 78.8 69.8 74% 81 29.96 0.0
01 22:15 S 6 10.00 Partly Cloudy SCT090 78.8 69.8 74% 81 29.96 0.0
01 21:55 SE 6 10.00 Partly Cloudy SCT090 80.6 69.8 70% 84 29.95 0.0
01 21:35 S 5 10.00 Partly Cloudy SCT090 80.6 69.8 70% 84 29.95 0.0
01 21:15 SE 5 10.00 A Few Clouds FEW090 80.6 71.6 74% 85 29.95 0.0
01 20:55 SE 6 10.00 A Few Clouds FEW090 80.6 71.6 74% 85 29.95 0.0
01 20:35 SE 5 10.00 Fair CLR 80.6 71.6 74% 85 29.94 0.0
01 20:15 SE 5 10.00 Fair CLR 80.6 71.6 74% 85 29.94 0.0
01 19:55 SE 5 10.00 Fair CLR 82.4 71.6 70% 87 29.94 0.0
01 19:35 SE 5 10.00 Fair CLR 82.4 73.4 74% 88 29.93 0.0
01 19:15 SE 3 10.00 Fair CLR 86 73.4 66% 93 29.93 0.0
01 18:55 S 3 10.00 Fair CLR 87.8 73.4 96.8 88.7 62% 96 29.94 0.0
01 18:35 S 5 10.00 Fair CLR 89.6 69.8 52% 95 29.94 0.0
01 18:15 S 6 10.00 Fair CLR 91.4 69.8 49% 97 29.94 0.0
01 17:55 S 5 10.00 Fair CLR 93.2 68 44% 98 29.94 0.0
01 17:35 S 7 10.00 Fair CLR 93.2 66.2 41% 96 29.94 0.0
01 17:15 S 8 10.00 Fair CLR 95 66.2 39% 98 29.94 0.0
01 16:55 S 9 10.00 Fair CLR 95 66.2 39% 98 29.94 0.0
01 16:35 S 7 10.00 Fair CLR 95 66.2 39% 98 29.94 0.0
01 16:15 S 8 10.00 Fair CLR 96.8 68 39% 102 29.94 0.0
01 15:55 S 10 10.00 Fair CLR 96.8 68 39% 102 29.95 0.0
01 15:35 S 7 10.00 Fair CLR 96.8 69.8 42% 103 29.95 0.0
01 15:15 Vrbl 7 10.00 Fair CLR 96.8 69.8 42% 103 29.95 0.0
01 14:55 S 5 10.00 Fair CLR 96.8 69.8 42% 103 29.96 0.0
01 14:35 S 6 10.00 Fair CLR 96.8 69.8 42% 103 29.97 0.0
01 14:15 SW 10 10.00 Fair CLR 96.8 68 39% 102 29.97 0.0
01 13:55 S 7 10.00 Fair CLR 95 69.8 44% 101 29.97 0.0
01 13:35 S 6 10.00 Fair CLR 95 71.6 47% 103 29.98 0.0
01 13:15 Vrbl 7 10.00 Fair CLR 95 69.8 44% 101 29.98 0.0
01 12:55 S 9 10.00 Fair CLR 95 69.8 94.5 74.3 44% 101 29.99 0.0
01 12:35 S 7 10.00 Fair CLR 93.2 71.6 50% 101 29.99 0.0
01 12:15 S 10 10.00 Fair CLR 93.2 69.8 47% 99 30 0.0
01 11:55 SW 9 G 16 10.00 Fair CLR 91.4 69.8 49% 97 30 0.0
01 11:35 S 10 10.00 Fair CLR 91.4 71.6 52% 99 30.01 0.0
01 11:15 SW 9 10.00 Fair CLR 89.6 69.8 52% 95 30.01 0.0
01 10:55 S 10 10.00 Fair CLR 89.6 69.8 52% 95 30.01 0.0
01 10:35 S 9 10.00 Fair CLR 87.8 71.6 59% 94 30.01 0.0
01 10:15 SW 8 10.00 Fair CLR 86 69.8 59% 91 30.01 0.0
01 09:55 S 8 10.00 Fair CLR 84.2 69.8 62% 88 30.01 0.0
01 09:35 S 7 10.00 Fair CLR 84.2 69.8 62% 88 30.01 0.0
01 09:15 S 7 10.00 Fair CLR 82.4 69.8 66% 86 30.01 0.0
01 08:55 S 8 10.00 Fair CLR 80.6 69.8 70% 84 30.01 0.0
01 08:35 S 7 10.00 Fair CLR 78.8 69.8 74% 81 30.02 0.0
01 08:15 S 8 10.00 Fair CLR 77 69.8 79% 79 30.01 0.0
01 07:55 S 9 10.00 Fair CLR 77 69.8 79% 79 30.01 0.0
01 07:35 S 8 10.00 Fair CLR 75.2 69.8 83% 75 30.01 0.0
01 07:15 S 7 10.00 Fair CLR 75.2 69.8 83% 75 30 0.0
01 06:55 S 7 10.00 Fair CLR 75.2 69.8 79.9 74.1 83% 75 29.99 0.0
01 06:35 S 6 10.00 Fair CLR 75.2 69.8 83% 75 29.98 0.0
01 06:15 S 7 10.00 Fair CLR 75.2 69.8 83% 75 29.97 0.0
01 05:55 S 6 10.00 Fair CLR 75.2 69.8 83% 75 29.97 0.0
01 05:35 S 8 10.00 Fair CLR 75.2 69.8 83% 75 29.97 0.0
01 05:15 S 7 10.00 Fair CLR 75.2 69.8 83% 75 29.96 0.0
01 04:55 S 5 10.00 Fair CLR 75.2 71.6 89% 75 29.97 0.0
01 04:35 S 3 10.00 Fair CLR 75.2 71.6 89% 75 29.97 0.0
01 04:15 S 6 10.00 Fair CLR 75.2 71.6 89% 75 29.96 0.0
01 03:55 S 6 10.00 Fair CLR 77 71.6 83% 78 29.96 0.0
01 03:35 S 7 10.00 Fair CLR 77 71.6 83% 78 29.96 0.0
01 03:15 S 7 10.00 Fair CLR 77 69.8 79% 79 29.96 0.0
01 02:55 S 6 10.00 Fair CLR 77 69.8 79% 79 29.96 0.0
01 02:35 S 6 10.00 Fair CLR 77 69.8 79% 79 29.96 0.0
01 02:15 S 6 10.00 Fair CLR 77 71.6 83% 78 29.96 0.0
01 01:55 S 7 10.00 Fair CLR 77 71.6 83% 78 29.96 0.0
01 01:35 S 6 10.00 Fair CLR 78.8 71.6 79% 82 29.96 0.0
01 01:15 S 7 10.00 Fair CLR 78.8 71.6 79% 82 29.96 0.0
01 00:55 S 8 10.00 Fair CLR 80.6 71.6 88 75.6 74% 85 29.96 0.0
01 00:35 S 7 10.00 Fair CLR 80.6 71.6 74% 85 29.96 0.0
01 00:15 S 7 10.00 Fair CLR 78.8 71.6 79% 82 29.95 0.0
31 23:55 S 6 10.00 Fair CLR 80.6 71.6 74% 85 29.95 0.0
31 23:35 S 7 10.00 Fair CLR 80.6 71.6 74% 85 29.95 0.0
31 23:15 S 6 10.00 Fair CLR 78.8 73.4 84% 82 29.95 0.0
31 22:35 S 3 10.00 Fair CLR 75.2 73.4 94% 74 29.95 0.0
31 22:15 S 3 10.00 Fair CLR 78.8 73.4 84% 82 29.95 0.0
31 21:55 S 5 10.00 Fair CLR 78.8 73.4 84% 82 29.95 0.0
31 21:35 S 5 10.00 Fair CLR 80.6 73.4 79% 85 29.95 0.0
31 21:15 S 6 10.00 Fair CLR 78.8 73.4 84% 82 29.94 0.0
31 20:55 S 5 10.00 Fair CLR 78.8 75.2 89% 82 29.94 0.0
31 20:35 SE 5 10.00 Fair CLR 80.6 75.2 84% 86 29.94 0.0
31 20:15 S 6 10.00 Fair CLR 80.6 75.2 84% 86 29.93 0.0
31 19:55 S 6 10.00 Fair CLR 82.4 75.2 79% 89 29.92 0.0
31 19:35 S 5 10.00 Fair CLR 84.2 73.4 70% 91 29.92 0.0
31 19:15 S 5 10.00 Fair CLR 86 75.2 70% 95 29.92 0.0
31 18:35 SW 3 10.00 Fair CLR 89.6 75.2 63% 100 29.92 0.0
31 18:15 SW 3 10.00 Fair CLR 89.6 75.2 63% 100 29.92 0.0
31 17:55 SW 5 10.00 Fair CLR 91.4 73.4 56% 100 29.91 0.0
31 17:35 SW 5 10.00 Fair CLR 91.4 73.4 56% 100 29.91 0.0
31 17:15 SW 6 10.00 Fair CLR 91.4 73.4 56% 100 29.91 0.0
31 16:55 SW 6 10.00 Fair CLR 91.4 73.4 56% 100 29.92 0.0
31 16:35 SW 5 10.00 Fair CLR 91.4 73.4 56% 100 29.91 0.0
31 16:15 SW 6 10.00 Fair CLR 91.4 73.4 56% 100 29.92 0.0
31 15:55 SW 6 10.00 Fair CLR 91.4 71.6 52% 99 29.92 0.0
31 15:35 S 8 10.00 Fair CLR 91.4 71.6 52% 99 29.92 0.0
31 15:15 S 8 10.00 Fair CLR 91.4 71.6 52% 99 29.92 0.0
31 14:55 S 9 10.00 Fair CLR 93.2 71.6 50% 101 29.91 0.0
31 14:35 S 9 10.00 Fair CLR 93.2 71.6 50% 101 29.92 0.0
31 14:15 Vrbl 6 10.00 Fair CLR 91.4 71.6 52% 99 29.92 0.0
31 13:55 SW 8 10.00 Fair CLR 91.4 69.8 49% 97 29.93 0.0
31 13:35 SW 10 10.00 Fair CLR 91.4 69.8 49% 97 29.93 0.0
31 13:15 SW 9 10.00 Fair CLR 91.4 69.8 49% 97 29.93 0.0
31 12:55 S 10 10.00 Fair CLR 89.6 69.8 90.5 76.3 52% 95 29.94 0.0
31 12:35 SW 9 G 18 10.00 Fair CLR 89.6 71.6 55% 96 29.94 0.0
31 12:15 SW 13 G 18 10.00 Fair CLR 89.6 69.8 52% 95 29.94 0.0
31 11:55 S 8 G 20 10.00 Fair CLR 87.8 69.8 55% 93 29.95 0.0
31 11:35 S 14 G 18 10.00 Fair CLR 87.8 69.8 55% 93 29.94 0.0
31 11:15 S 10 G 17 10.00 Fair CLR 86 68 55% 89 29.94 0.0
31 10:55 S 10 G 20 10.00 Partly Cloudy SCT120 86 69.8 59% 91 29.95 0.0
31 10:35 S 10 10.00 Mostly Cloudy BKN110 84.2 68 58% 87 29.94 0.0
31 10:15 S 10 G 17 10.00 Mostly Cloudy BKN110 82.4 68 62% 85 29.94 0.0
31 09:55 S 12 10.00 Mostly Cloudy BKN110 82.4 66.2 58% 85 29.94 0.0
31 09:35 S 12 G 20 10.00 Mostly Cloudy BKN110 80.6 66.2 62% 83 29.94 0.0
Date Time (cdt) Wind (mph) Vis. (mi.) Weather Sky Cond. Air Dwpt Max. Min. Relative Humidity Wind Chill (°F) Heat Index (°F) altimeter (in) sea level (mb) 1 hr 3 hr 6 hr
6 hour
Temperature (ºF) Pressure Precipitation (in)